Terminal Aerodrome Forecast
Issued by NWS

Home | Current Version | Previous Version | Text Only | Print | Product List | Glossary Off
Versions: 1 2 3 4 5 6 7 8 9 10 11 12 13 14 15 16 17 18 19

000
FTUS43 KFGF 291100
TAFBJI
TAF
KBJI 291132Z 2912/3012 13003KT 3SM -RA BR OVC007
     FM291600 13002KT P6SM OVC015
     FM291900 34006KT P6SM SCT020 BKN035
     FM292300 34005KT P6SM VCSH SCT025 BKN050
      TEMPO 3000/3003 3SM -TSRA BR OVC020CB
     FM300600 VRB04KT P6SM SCT035=

USA.gov is the U.S. government's official web portal to all federal, state and local government web resources and services.